sensor_id;sensor_type;location;lat;lon;timestamp;pressure;altitude;pressure_sealevel;temperature;humidity
4745;BME280;2386;42.138;24.746;2022-11-20T00:01:16;99015.13;;;13.84;100.00
4745;BME280;2386;42.138;24.746;2022-11-20T00:03:42;99021.19;;;14.01;100.00
4745;BME280;2386;42.138;24.746;2022-11-20T00:06:10;99012.19;;;14.05;100.00
4745;BME280;2386;42.138;24.746;2022-11-20T00:08:37;99029.09;;;14.12;100.00
4745;BME280;2386;42.138;24.746;2022-11-20T00:11:04;99015.03;;;13.63;100.00
4745;BME280;2386;42.138;24.746;2022-11-20T00:13:30;99026.56;;;13.80;100.00
4745;BME280;2386;42.138;24.746;2022-11-20T00:16:00;99039.72;;;13.99;100.00
4745;BME280;2386;42.138;24.746;2022-11-20T00:18:27;99026.06;;;13.89;100.00
4745;BME280;2386;42.138;24.746;2022-11-20T00:20:52;99010.28;;;14.01;100.00
4745;BME280;2386;42.138;24.746;2022-11-20T00:23:18;99031.56;;;14.09;100.00
4745;BME280;2386;42.138;24.746;2022-11-20T00:25:44;99024.47;;;14.13;100.00
4745;BME280;2386;42.138;24.746;2022-11-20T00:28:09;98996.94;;;14.09;100.00
4745;BME280;2386;42.138;24.746;2022-11-20T00:30:35;99013.03;;;14.16;100.00
4745;BME280;2386;42.138;24.746;2022-11-20T00:33:00;99028.78;;;13.89;100.00
4745;BME280;2386;42.138;24.746;2022-11-20T00:35:25;99019.53;;;13.95;100.00
4745;BME280;2386;42.138;24.746;2022-11-20T00:37:51;99013.00;;;14.01;100.00
4745;BME280;2386;42.138;24.746;2022-11-20T00:40:16;99029.91;;;14.13;100.00
4745;BME280;2386;42.138;24.746;2022-11-20T00:42:41;99022.81;;;14.12;100.00
4745;BME280;2386;42.138;24.746;2022-11-20T00:45:07;99001.56;;;14.19;100.00
4745;BME280;2386;42.138;24.746;2022-11-20T00:47:32;99013.03;;;14.26;100.00
4745;BME280;2386;42.138;24.746;2022-11-20T00:49:58;99032.94;;;14.22;100.00
4745;BME280;2386;42.138;24.746;2022-11-20T00:52:23;99032.91;;;14.11;100.00
4745;BME280;2386;42.138;24.746;2022-11-20T00:54:48;99019.81;;;13.98;100.00
4745;BME280;2386;42.138;24.746;2022-11-20T00:57:14;99032.66;;;14.18;100.00
4745;BME280;2386;42.138;24.746;2022-11-20T00:59:39;99038.13;;;14.23;100.00
4745;BME280;2386;42.138;24.746;2022-11-20T01:02:08;99023.94;;;14.21;100.00
4745;BME280;2386;42.138;24.746;2022-11-20T01:04:33;99022.31;;;14.20;100.00
4745;BME280;2386;42.138;24.746;2022-11-20T01:07:03;99028.59;;;14.31;100.00
4745;BME280;2386;42.138;24.746;2022-11-20T01:09:30;99021.94;;;13.81;100.00
4745;BME280;2386;42.138;24.746;2022-11-20T01:11:56;99014.59;;;13.87;100.00
4745;BME280;2386;42.138;24.746;2022-11-20T01:14:21;99019.84;;;14.13;100.00
4745;BME280;2386;42.138;24.746;2022-11-20T01:16:49;99017.13;;;14.19;100.00
4745;BME280;2386;42.138;24.746;2022-11-20T01:19:17;99017.16;;;14.29;100.00
4745;BME280;2386;42.138;24.746;2022-11-20T01:21:44;99003.22;;;14.25;100.00
4745;BME280;2386;42.138;24.746;2022-11-20T01:24:13;99015.78;;;14.31;100.00
4745;BME280;2386;42.138;24.746;2022-11-20T01:26:40;98991.16;;;13.96;100.00
4745;BME280;2386;42.138;24.746;2022-11-20T01:29:10;98999.13;;;14.07;100.00
4745;BME280;2386;42.138;24.746;2022-11-20T01:31:37;98989.03;;;14.18;100.00
4745;BME280;2386;42.138;24.746;2022-11-20T01:34:12;98983.56;;;14.18;100.00
4745;BME280;2386;42.138;24.746;2022-11-20T01:36:38;98997.63;;;13.69;100.00
4745;BME280;2386;42.138;24.746;2022-11-20T01:39:09;98979.91;;;13.72;100.00
4745;BME280;2386;42.138;24.746;2022-11-20T01:41:35;98992.22;;;13.79;100.00
4745;BME280;2386;42.138;24.746;2022-11-20T01:44:22;98975.38;;;13.98;100.00
4745;BME280;2386;42.138;24.746;2022-11-20T01:46:56;98977.53;;;13.91;100.00
4745;BME280;2386;42.138;24.746;2022-11-20T01:49:28;98978.09;;;13.98;100.00
4745;BME280;2386;42.138;24.746;2022-11-20T01:52:01;98960.66;;;14.04;100.00
4745;BME280;2386;42.138;24.746;2022-11-20T01:54:50;98971.56;;;14.19;100.00
4745;BME280;2386;42.138;24.746;2022-11-20T01:57:19;98978.38;;;14.17;100.00
4745;BME280;2386;42.138;24.746;2022-11-20T01:59:53;98969.13;;;14.07;100.00
4745;BME280;2386;42.138;24.746;2022-11-20T02:02:20;98956.56;;;14.17;100.00
4745;BME280;2386;42.138;24.746;2022-11-20T02:04:47;98955.47;;;14.18;100.00
4745;BME280;2386;42.138;24.746;2022-11-20T02:07:13;98956.56;;;14.22;100.00
4745;BME280;2386;42.138;24.746;2022-11-20T02:09:38;98950.56;;;14.25;100.00
4745;BME280;2386;42.138;24.746;2022-11-20T02:12:04;98949.47;;;14.26;100.00
4745;BME280;2386;42.138;24.746;2022-11-20T02:14:30;98964.19;;;14.20;100.00
4745;BME280;2386;42.138;24.746;2022-11-20T02:16:56;98959.56;;;14.25;100.00
4745;BME280;2386;42.138;24.746;2022-11-20T02:19:27;98948.41;;;14.27;100.00
4745;BME280;2386;42.138;24.746;2022-11-20T02:22:14;98956.84;;;14.25;100.00
4745;BME280;2386;42.138;24.746;2022-11-20T02:24:45;98949.19;;;14.22;100.00
4745;BME280;2386;42.138;24.746;2022-11-20T02:27:13;98958.47;;;14.16;100.00
4745;BME280;2386;42.138;24.746;2022-11-20T02:29:44;98935.81;;;14.15;100.00
4745;BME280;2386;42.138;24.746;2022-11-20T02:32:21;98927.94;;;14.19;100.00
4745;BME280;2386;42.138;24.746;2022-11-20T02:34:47;98944.84;;;14.21;100.00
4745;BME280;2386;42.138;24.746;2022-11-20T02:37:16;98938.28;;;14.17;100.00
4745;BME280;2386;42.138;24.746;2022-11-20T02:39:46;98916.19;;;14.13;100.00
4745;BME280;2386;42.138;24.746;2022-11-20T02:42:13;98920.81;;;14.18;100.00
4745;BME280;2386;42.138;24.746;2022-11-20T02:44:38;98920.00;;;14.12;100.00
4745;BME280;2386;42.138;24.746;2022-11-20T02:47:04;98917.56;;;14.06;100.00
4745;BME280;2386;42.138;24.746;2022-11-20T02:49:30;98926.00;;;14.20;100.00
4745;BME280;2386;42.138;24.746;2022-11-20T02:51:55;98947.28;;;14.23;100.00
4745;BME280;2386;42.138;24.746;2022-11-20T02:54:21;98944.28;;;14.14;100.00
4745;BME280;2386;42.138;24.746;2022-11-20T02:56:46;98929.00;;;14.18;100.00
4745;BME280;2386;42.138;24.746;2022-11-20T02:59:11;98932.00;;;14.22;100.00
4745;BME280;2386;42.138;24.746;2022-11-20T03:01:37;98923.84;;;14.27;100.00
4745;BME280;2386;42.138;24.746;2022-11-20T03:04:02;98941.03;;;14.32;100.00
4745;BME280;2386;42.138;24.746;2022-11-20T03:06:28;98927.09;;;13.98;100.00
4745;BME280;2386;42.138;24.746;2022-11-20T03:08:53;98916.47;;;14.17;100.00
4745;BME280;2386;42.138;24.746;2022-11-20T03:11:19;98913.19;;;14.20;100.00
4745;BME280;2386;42.138;24.746;2022-11-20T03:13:44;98933.94;;;14.31;100.00
4745;BME280;2386;42.138;24.746;2022-11-20T03:16:12;98936.38;;;14.28;100.00
4745;BME280;2386;42.138;24.746;2022-11-20T03:18:39;98940.75;;;14.34;100.00
4745;BME280;2386;42.138;24.746;2022-11-20T03:21:05;98932.63;;;14.44;100.00
4745;BME280;2386;42.138;24.746;2022-11-20T03:23:31;98922.78;;;14.43;100.00
4745;BME280;2386;42.138;24.746;2022-11-20T03:26:14;98915.69;;;14.42;100.00
4745;BME280;2386;42.138;24.746;2022-11-20T03:28:41;98922.22;;;14.41;100.00
4745;BME280;2386;42.138;24.746;2022-11-20T03:31:09;98923.06;;;14.41;100.00
4745;BME280;2386;42.138;24.746;2022-11-20T03:33:35;98900.66;;;14.34;100.00
4745;BME280;2386;42.138;24.746;2022-11-20T03:36:04;98921.44;;;14.51;100.00
4745;BME280;2386;42.138;24.746;2022-11-20T03:38:31;98919.25;;;14.53;100.00
4745;BME280;2386;42.138;24.746;2022-11-20T03:41:05;98919.78;;;14.50;100.00
4745;BME280;2386;42.138;24.746;2022-11-20T03:43:31;98920.34;;;14.41;100.00
4745;BME280;2386;42.138;24.746;2022-11-20T03:45:57;98934.78;;;14.42;100.00
4745;BME280;2386;42.138;24.746;2022-11-20T03:48:23;98926.06;;;14.50;100.00
4745;BME280;2386;42.138;24.746;2022-11-20T03:50:48;98932.88;;;14.48;100.00
4745;BME280;2386;42.138;24.746;2022-11-20T03:53:14;98924.69;;;14.48;100.00
4745;BME280;2386;42.138;24.746;2022-11-20T03:55:40;98932.88;;;14.58;100.00
4745;BME280;2386;42.138;24.746;2022-11-20T03:58:05;98912.13;;;14.57;100.00
4745;BME280;2386;42.138;24.746;2022-11-20T04:00:31;98924.69;;;14.63;100.00
4745;BME280;2386;42.138;24.746;2022-11-20T04:03:00;98924.44;;;14.59;100.00
4745;BME280;2386;42.138;24.746;2022-11-20T04:05:26;98931.25;;;14.57;100.00
4745;BME280;2386;42.138;24.746;2022-11-20T04:07:51;98935.63;;;14.53;100.00
4745;BME280;2386;42.138;24.746;2022-11-20T04:10:17;98917.88;;;14.55;100.00
4745;BME280;2386;42.138;24.746;2022-11-20T04:12:42;98925.50;;;14.58;100.00
4745;BME280;2386;42.138;24.746;2022-11-20T04:15:13;98933.97;;;14.52;100.00
4745;BME280;2386;42.138;24.746;2022-11-20T04:17:39;98936.72;;;14.57;100.00
4745;BME280;2386;42.138;24.746;2022-11-20T04:20:05;98936.72;;;14.57;100.00
4745;BME280;2386;42.138;24.746;2022-11-20T04:22:30;98950.03;;;14.38;100.00
4745;BME280;2386;42.138;24.746;2022-11-20T04:24:55;98926.56;;;14.22;100.00
4745;BME280;2386;42.138;24.746;2022-11-20T04:27:21;98949.22;;;14.37;100.00
4745;BME280;2386;42.138;24.746;2022-11-20T04:29:46;98921.94;;;14.07;100.00
4745;BME280;2386;42.138;24.746;2022-11-20T04:32:12;98931.75;;;14.28;100.00
4745;BME280;2386;42.138;24.746;2022-11-20T04:34:37;98921.94;;;14.27;100.00
4745;BME280;2386;42.138;24.746;2022-11-20T04:37:02;98937.50;;;14.37;100.00
4745;BME280;2386;42.138;24.746;2022-11-20T04:39:28;98932.34;;;14.45;100.00
4745;BME280;2386;42.138;24.746;2022-11-20T04:41:53;98919.25;;;14.48;100.00
4745;BME280;2386;42.138;24.746;2022-11-20T04:44:39;98935.88;;;14.51;100.00
4745;BME280;2386;42.138;24.746;2022-11-20T04:47:04;98936.72;;;14.41;100.00
4745;BME280;2386;42.138;24.746;2022-11-20T04:49:30;98929.03;;;14.33;100.00
4745;BME280;2386;42.138;24.746;2022-11-20T04:51:57;98928.50;;;14.41;100.00
4745;BME280;2386;42.138;24.746;2022-11-20T04:54:22;98938.88;;;14.50;100.00
4745;BME280;2386;42.138;24.746;2022-11-20T04:56:48;98941.06;;;14.53;100.00
4745;BME280;2386;42.138;24.746;2022-11-20T04:59:13;98932.34;;;14.51;100.00
4745;BME280;2386;42.138;24.746;2022-11-20T05:01:39;98937.78;;;14.56;100.00
4745;BME280;2386;42.138;24.746;2022-11-20T05:04:04;98924.69;;;14.58;100.00
4745;BME280;2386;42.138;24.746;2022-11-20T05:06:31;98915.97;;;14.61;100.00
4745;BME280;2386;42.138;24.746;2022-11-20T05:08:57;98933.44;;;14.65;100.00
4745;BME280;2386;42.138;24.746;2022-11-20T05:11:22;98938.34;;;14.68;100.00
4745;BME280;2386;42.138;24.746;2022-11-20T05:13:49;98951.97;;;14.73;100.00
4745;BME280;2386;42.138;24.746;2022-11-20T05:16:22;98944.88;;;14.72;100.00
4745;BME280;2386;42.138;24.746;2022-11-20T05:18:49;98960.16;;;14.83;100.00
4745;BME280;2386;42.138;24.746;2022-11-20T05:21:15;98966.72;;;14.82;100.00
4745;BME280;2386;42.138;24.746;2022-11-20T05:23:41;98942.69;;;14.84;100.00
4745;BME280;2386;42.138;24.746;2022-11-20T05:26:12;98946.47;;;14.88;100.00
4745;BME280;2386;42.138;24.746;2022-11-20T05:28:38;98933.38;;;14.90;100.00
4745;BME280;2386;42.138;24.746;2022-11-20T05:33:56;98943.75;;;14.88;100.00
4745;BME280;2386;42.138;24.746;2022-11-20T05:36:21;98942.66;;;14.94;100.00
4745;BME280;2386;42.138;24.746;2022-11-20T05:38:47;98924.63;;;14.88;100.00
4745;BME280;2386;42.138;24.746;2022-11-20T05:41:15;98947.28;;;14.94;100.00
4745;BME280;2386;42.138;24.746;2022-11-20T05:43:42;98955.22;;;14.90;100.00
4745;BME280;2386;42.138;24.746;2022-11-20T05:46:10;98948.09;;;14.99;100.00
4745;BME280;2386;42.138;24.746;2022-11-20T05:48:37;98939.91;;;14.94;100.00
4745;BME280;2386;42.138;24.746;2022-11-20T05:51:04;98941.56;;;14.90;100.00
4745;BME280;2386;42.138;24.746;2022-11-20T05:53:32;98968.09;;;14.74;100.00
4745;BME280;2386;42.138;24.746;2022-11-20T05:56:24;98950.91;;;14.49;100.00
4745;BME280;2386;42.138;24.746;2022-11-20T05:58:49;98944.88;;;14.72;100.00
4745;BME280;2386;42.138;24.746;2022-11-20T06:01:24;98960.19;;;14.73;100.00
4745;BME280;2386;42.138;24.746;2022-11-20T06:03:50;98962.38;;;14.71;100.00
4745;BME280;2386;42.138;24.746;2022-11-20T06:06:16;98967.78;;;14.35;100.00
4745;BME280;2386;42.138;24.746;2022-11-20T06:08:43;98954.72;;;14.58;100.00
4745;BME280;2386;42.138;24.746;2022-11-20T06:11:25;98948.72;;;14.61;100.00
4745;BME280;2386;42.138;24.746;2022-11-20T06:13:51;98962.91;;;14.63;100.00
4745;BME280;2386;42.138;24.746;2022-11-20T06:16:18;98936.16;;;14.70;100.00
4745;BME280;2386;42.138;24.746;2022-11-20T06:18:45;98974.91;;;14.77;100.00
4745;BME280;2386;42.138;24.746;2022-11-20T06:21:15;98954.16;;;14.71;100.00
4745;BME280;2386;42.138;24.746;2022-11-20T06:23:42;98958.53;;;14.77;100.00
4745;BME280;2386;42.138;24.746;2022-11-20T06:26:11;98978.75;;;14.71;100.00
4745;BME280;2386;42.138;24.746;2022-11-20T06:28:37;98988.03;;;14.75;100.00
4745;BME280;2386;42.138;24.746;2022-11-20T06:31:03;98980.38;;;14.77;100.00
4745;BME280;2386;42.138;24.746;2022-11-20T06:33:28;98982.78;;;14.89;100.00
4745;BME280;2386;42.138;24.746;2022-11-20T06:35:58;98972.13;;;14.97;100.00
4745;BME280;2386;42.138;24.746;2022-11-20T06:38:24;98981.41;;;15.06;100.00
4745;BME280;2386;42.138;24.746;2022-11-20T06:40:50;98970.47;;;15.11;100.00
4745;BME280;2386;42.138;24.746;2022-11-20T06:43:15;98964.19;;;15.21;100.00
4745;BME280;2386;42.138;24.746;2022-11-20T06:45:41;98986.00;;;15.31;100.00
4745;BME280;2386;42.138;24.746;2022-11-20T06:48:06;98979.16;;;15.39;100.00
4745;BME280;2386;42.138;24.746;2022-11-20T06:50:32;98991.19;;;15.43;100.00
4745;BME280;2386;42.138;24.746;2022-11-20T06:53:00;98958.34;;;15.48;100.00
4745;BME280;2386;42.138;24.746;2022-11-20T06:55:25;98975.84;;;15.47;100.00
4745;BME280;2386;42.138;24.746;2022-11-20T06:57:51;98986.78;;;15.52;100.00
4745;BME280;2386;42.138;24.746;2022-11-20T07:00:16;98982.69;;;15.60;100.00
4745;BME280;2386;42.138;24.746;2022-11-20T07:02:42;98987.25;;;15.69;100.00
4745;BME280;2386;42.138;24.746;2022-11-20T07:05:07;98980.66;;;15.75;100.00
4745;BME280;2386;42.138;24.746;2022-11-20T07:07:33;98995.41;;;15.80;100.00
4745;BME280;2386;42.138;24.746;2022-11-20T07:09:58;99007.72;;;15.82;100.00
4745;BME280;2386;42.138;24.746;2022-11-20T07:12:23;98964.50;;;15.84;100.00
4745;BME280;2386;42.138;24.746;2022-11-20T07:14:49;98983.88;;;15.93;100.00
4745;BME280;2386;42.138;24.746;2022-11-20T07:17:14;99010.69;;;15.91;100.00
4745;BME280;2386;42.138;24.746;2022-11-20T07:19:39;99001.97;;;15.84;100.00
4745;BME280;2386;42.138;24.746;2022-11-20T07:22:05;98974.63;;;15.84;100.00
4745;BME280;2386;42.138;24.746;2022-11-20T07:24:30;98982.53;;;15.90;100.00
4745;BME280;2386;42.138;24.746;2022-11-20T07:26:55;98980.06;;;15.89;100.00
4745;BME280;2386;42.138;24.746;2022-11-20T07:29:21;99004.97;;;15.87;100.00
4745;BME280;2386;42.138;24.746;2022-11-20T07:31:46;98999.84;;;15.70;100.00
4745;BME280;2386;42.138;24.746;2022-11-20T07:34:13;99004.72;;;15.84;100.00
4745;BME280;2386;42.138;24.746;2022-11-20T07:36:39;99012.88;;;15.89;100.00
4745;BME280;2386;42.138;24.746;2022-11-20T07:39:04;99008.53;;;15.83;100.00
4745;BME280;2386;42.138;24.746;2022-11-20T07:41:30;99027.09;;;15.91;100.00
4745;BME280;2386;42.138;24.746;2022-11-20T07:43:55;99016.97;;;15.91;100.00
4745;BME280;2386;42.138;24.746;2022-11-20T07:46:21;99021.59;;;16.01;100.00
4745;BME280;2386;42.138;24.746;2022-11-20T07:48:46;99018.34;;;15.89;100.00
4745;BME280;2386;42.138;24.746;2022-11-20T07:51:11;99009.31;;;15.93;100.00
4745;BME280;2386;42.138;24.746;2022-11-20T07:53:38;99016.13;;;16.01;100.00
4745;BME280;2386;42.138;24.746;2022-11-20T07:56:04;99005.72;;;15.98;100.00
4745;BME280;2386;42.138;24.746;2022-11-20T07:58:30;99010.91;;;16.04;100.00
4745;BME280;2386;42.138;24.746;2022-11-20T08:00:56;98993.44;;;15.95;100.00
4745;BME280;2386;42.138;24.746;2022-11-20T08:03:21;98992.28;;;16.06;100.00
4745;BME280;2386;42.138;24.746;2022-11-20T08:05:46;98987.88;;;16.10;100.00
4745;BME280;2386;42.138;24.746;2022-11-20T08:08:12;99011.09;;;16.18;100.00
4745;BME280;2386;42.138;24.746;2022-11-20T08:10:37;98996.88;;;16.16;100.00
4745;BME280;2386;42.138;24.746;2022-11-20T08:13:03;99003.69;;;16.24;100.00
4745;BME280;2386;42.138;24.746;2022-11-20T08:19:08;99006.28;;;16.39;100.00
4745;BME280;2386;42.138;24.746;2022-11-20T08:21:34;98994.00;;;16.36;100.00
4745;BME280;2386;42.138;24.746;2022-11-20T08:23:59;98993.41;;;16.44;100.00
4745;BME280;2386;42.138;24.746;2022-11-20T08:26:25;99003.22;;;16.51;100.00
4745;BME280;2386;42.138;24.746;2022-11-20T08:28:56;99010.78;;;16.64;100.00
4745;BME280;2386;42.138;24.746;2022-11-20T08:31:23;99008.53;;;16.76;100.00
4745;BME280;2386;42.138;24.746;2022-11-20T08:33:49;99005.72;;;16.86;100.00
4745;BME280;2386;42.138;24.746;2022-11-20T08:36:14;98998.84;;;16.89;100.00
4745;BME280;2386;42.138;24.746;2022-11-20T08:38:40;98990.00;;;16.97;100.00
4745;BME280;2386;42.138;24.746;2022-11-20T08:44:27;98985.59;;;17.25;100.00
4745;BME280;2386;42.138;24.746;2022-11-20T08:46:52;98973.75;;;17.29;100.00
4745;BME280;2386;42.138;24.746;2022-11-20T08:49:18;98974.75;;;17.38;100.00
4745;BME280;2386;42.138;24.746;2022-11-20T08:51:43;98979.06;;;17.45;100.00
4745;BME280;2386;42.138;24.746;2022-11-20T08:54:10;98967.28;;;17.44;100.00
4745;BME280;2386;42.138;24.746;2022-11-20T08:56:35;98976.22;;;17.55;100.00
4745;BME280;2386;42.138;24.746;2022-11-20T08:59:01;98985.50;;;17.59;100.00
4745;BME280;2386;42.138;24.746;2022-11-20T09:01:28;98981.84;;;17.68;100.00
4745;BME280;2386;42.138;24.746;2022-11-20T09:03:57;98969.25;;;17.67;100.00
4745;BME280;2386;42.138;24.746;2022-11-20T09:06:23;98983.13;;;17.76;100.00
4745;BME280;2386;42.138;24.746;2022-11-20T09:08:52;98997.38;;;17.97;100.00
4745;BME280;2386;42.138;24.746;2022-11-20T09:11:18;98984.69;;;18.01;100.00
4745;BME280;2386;42.138;24.746;2022-11-20T09:13:43;98970.38;;;18.04;100.00
4745;BME280;2386;42.138;24.746;2022-11-20T09:16:09;98978.31;;;18.05;100.00
4745;BME280;2386;42.138;24.746;2022-11-20T09:18:35;98986.72;;;18.14;100.00
4745;BME280;2386;42.138;24.746;2022-11-20T09:24:24;98974.19;;;18.27;100.00
4745;BME280;2386;42.138;24.746;2022-11-20T09:26:49;98958.31;;;18.24;100.00
4745;BME280;2386;42.138;24.746;2022-11-20T09:29:14;98962.22;;;18.36;100.00
4745;BME280;2386;42.138;24.746;2022-11-20T09:31:40;98953.75;;;18.52;100.00
4745;BME280;2386;42.138;24.746;2022-11-20T09:42:00;98936.09;;;19.04;100.00
4745;BME280;2386;42.138;24.746;2022-11-20T09:53:16;98905.75;;;19.50;100.00
4745;BME280;2386;42.138;24.746;2022-11-20T09:55:46;98911.69;;;19.57;100.00
4745;BME280;2386;42.138;24.746;2022-11-20T10:00:49;98889.75;;;19.80;100.00
4745;BME280;2386;42.138;24.746;2022-11-20T10:03:21;98886.88;;;19.85;100.00
4745;BME280;2386;42.138;24.746;2022-11-20T10:05:54;98900.31;;;19.86;100.00
4745;BME280;2386;42.138;24.746;2022-11-20T10:08:35;98908.78;;;19.90;100.00
4745;BME280;2386;42.138;24.746;2022-11-20T10:11:15;98910.50;;;19.99;100.00
4745;BME280;2386;42.138;24.746;2022-11-20T10:14:09;98905.53;;;20.10;100.00
4745;BME280;2386;42.138;24.746;2022-11-20T10:17:02;98892.78;;;20.14;100.00
4745;BME280;2386;42.138;24.746;2022-11-20T10:25:44;98897.53;;;20.22;100.00
4745;BME280;2386;42.138;24.746;2022-11-20T10:31:37;98887.78;;;20.16;100.00
4745;BME280;2386;42.138;24.746;2022-11-20T10:34:08;98879.94;;;20.10;100.00
4745;BME280;2386;42.138;24.746;2022-11-20T10:36:45;98870.56;;;20.11;100.00
4745;BME280;2386;42.138;24.746;2022-11-20T10:39:41;98880.44;;;20.12;100.00
4745;BME280;2386;42.138;24.746;2022-11-20T10:42:15;98871.84;;;20.05;100.00
4745;BME280;2386;42.138;24.746;2022-11-20T10:44:49;98878.50;;;20.12;100.00
4745;BME280;2386;42.138;24.746;2022-11-20T10:47:31;98867.81;;;20.11;100.00
4745;BME280;2386;42.138;24.746;2022-11-20T10:50:03;98848.72;;;20.14;100.00
4745;BME280;2386;42.138;24.746;2022-11-20T10:58:01;98848.59;;;20.19;100.00
4745;BME280;2386;42.138;24.746;2022-11-20T11:00:24;98861.25;;;20.20;100.00
4745;BME280;2386;42.138;24.746;2022-11-20T11:02:52;98848.91;;;20.18;100.00
4745;BME280;2386;42.138;24.746;2022-11-20T11:05:46;98858.22;;;20.08;100.00
4745;BME280;2386;42.138;24.746;2022-11-20T11:08:17;98851.09;;;20.07;100.00
4745;BME280;2386;42.138;24.746;2022-11-20T11:14:14;98843.66;;;19.85;100.00
4745;BME280;2386;42.138;24.746;2022-11-20T11:17:18;98817.38;;;19.79;100.00
4745;BME280;2386;42.138;24.746;2022-11-20T11:19:45;98806.91;;;19.67;100.00
4745;BME280;2386;42.138;24.746;2022-11-20T11:22:17;98816.97;;;19.72;100.00
4745;BME280;2386;42.138;24.746;2022-11-20T11:24:52;98817.19;;;19.76;100.00
4745;BME280;2386;42.138;24.746;2022-11-20T11:27:18;98816.66;;;19.74;100.00
4745;BME280;2386;42.138;24.746;2022-11-20T11:29:45;98804.78;;;19.64;100.00
4745;BME280;2386;42.138;24.746;2022-11-20T11:32:18;98797.66;;;19.63;100.00
4745;BME280;2386;42.138;24.746;2022-11-20T11:34:44;98809.66;;;19.67;100.00
4745;BME280;2386;42.138;24.746;2022-11-20T11:37:17;98802.94;;;19.60;100.00
4745;BME280;2386;42.138;24.746;2022-11-20T11:39:44;98814.16;;;19.63;100.00
4745;BME280;2386;42.138;24.746;2022-11-20T11:42:17;98803.44;;;19.62;100.00
4745;BME280;2386;42.138;24.746;2022-11-20T11:44:45;98810.91;;;19.61;100.00
4745;BME280;2386;42.138;24.746;2022-11-20T11:47:32;98813.97;;;19.60;100.00
4745;BME280;2386;42.138;24.746;2022-11-20T11:50:23;98822.91;;;19.65;100.00
4745;BME280;2386;42.138;24.746;2022-11-20T11:53:11;98820.47;;;19.64;100.00
4745;BME280;2386;42.138;24.746;2022-11-20T11:55:58;98814.56;;;19.57;100.00
4745;BME280;2386;42.138;24.746;2022-11-20T11:58:40;98821.09;;;19.61;100.00
4745;BME280;2386;42.138;24.746;2022-11-20T12:03:52;98824.16;;;19.59;100.00
4745;BME280;2386;42.138;24.746;2022-11-20T12:06:20;98814.25;;;19.58;100.00
4745;BME280;2386;42.138;24.746;2022-11-20T12:08:53;98816.72;;;19.60;100.00
4745;BME280;2386;42.138;24.746;2022-11-20T12:14:46;98807.22;;;19.66;100.00
4745;BME280;2386;42.138;24.746;2022-11-20T12:17:13;98808.22;;;19.70;100.00
4745;BME280;2386;42.138;24.746;2022-11-20T12:19:39;98798.47;;;19.64;100.00
4745;BME280;2386;42.138;24.746;2022-11-20T12:22:17;98793.16;;;19.67;100.00
4745;BME280;2386;42.138;24.746;2022-11-20T12:30:09;98793.88;;;19.59;100.00
4745;BME280;2386;42.138;24.746;2022-11-20T12:40:53;98791.13;;;19.59;100.00
4745;BME280;2386;42.138;24.746;2022-11-20T12:43:30;98781.38;;;19.53;100.00
4745;BME280;2386;42.138;24.746;2022-11-20T12:58:52;98779.53;;;19.35;100.00
4745;BME280;2386;42.138;24.746;2022-11-20T13:01:45;98791.16;;;19.32;100.00
4745;BME280;2386;42.138;24.746;2022-11-20T13:07:03;98796.28;;;19.25;100.00
4745;BME280;2386;42.138;24.746;2022-11-20T13:09:30;98784.38;;;19.16;100.00
4745;BME280;2386;42.138;24.746;2022-11-20T13:12:35;98792.25;;;19.09;100.00
4745;BME280;2386;42.138;24.746;2022-11-20T13:18:00;98797.13;;;19.12;100.00
4745;BME280;2386;42.138;24.746;2022-11-20T13:20:26;98800.28;;;19.05;100.00
4745;BME280;2386;42.138;24.746;2022-11-20T13:22:53;98800.09;;;19.01;100.00
4745;BME280;2386;42.138;24.746;2022-11-20T13:25:24;98801.72;;;19.02;100.00
4745;BME280;2386;42.138;24.746;2022-11-20T13:27:50;98813.00;;;19.01;100.00
4745;BME280;2386;42.138;24.746;2022-11-20T13:30:19;98812.81;;;18.97;100.00
4745;BME280;2386;42.138;24.746;2022-11-20T13:35:27;98813.53;;;19.03;100.00
4745;BME280;2386;42.138;24.746;2022-11-20T13:38:19;98831.34;;;19.06;99.71
4745;BME280;2386;42.138;24.746;2022-11-20T13:40:59;98837.44;;;19.02;90.50
4745;BME280;2386;42.138;24.746;2022-11-20T13:43:47;98833.16;;;19.24;86.15
4745;BME280;2386;42.138;24.746;2022-11-20T13:46:13;98834.53;;;19.35;82.37
4745;BME280;2386;42.138;24.746;2022-11-20T13:48:44;98834.34;;;19.45;75.69
4745;BME280;2386;42.138;24.746;2022-11-20T14:06:25;98889.53;;;20.12;79.05
4745;BME280;2386;42.138;24.746;2022-11-20T14:08:52;98884.63;;;19.87;83.37
4745;BME280;2386;42.138;24.746;2022-11-20T14:11:29;98882.84;;;19.68;81.22
4745;BME280;2386;42.138;24.746;2022-11-20T14:13:58;98889.78;;;19.52;82.36
4745;BME280;2386;42.138;24.746;2022-11-20T14:16:26;98868.06;;;19.37;80.12
4745;BME280;2386;42.138;24.746;2022-11-20T14:18:52;98856.38;;;19.18;80.57
4745;BME280;2386;42.138;24.746;2022-11-20T14:21:26;98865.97;;;19.20;80.68
4745;BME280;2386;42.138;24.746;2022-11-20T14:23:53;98866.78;;;19.21;79.15
4745;BME280;2386;42.138;24.746;2022-11-20T14:26:19;98854.75;;;19.17;80.04
4745;BME280;2386;42.138;24.746;2022-11-20T14:28:49;98864.72;;;19.13;80.87
4745;BME280;2386;42.138;24.746;2022-11-20T14:31:26;98853.53;;;18.95;80.58
4745;BME280;2386;42.138;24.746;2022-11-20T14:33:53;98857.38;;;18.94;80.64
4745;BME280;2386;42.138;24.746;2022-11-20T14:36:24;98861.16;;;18.85;82.03
4745;BME280;2386;42.138;24.746;2022-11-20T14:38:51;98854.53;;;18.86;81.84
4745;BME280;2386;42.138;24.746;2022-11-20T14:41:23;98835.78;;;18.74;80.96
4745;BME280;2386;42.138;24.746;2022-11-20T14:43:57;98845.09;;;18.59;82.80
4745;BME280;2386;42.138;24.746;2022-11-20T14:46:24;98861.25;;;18.80;83.91
4745;BME280;2386;42.138;24.746;2022-11-20T14:49:00;98821.44;;;18.63;84.14
4745;BME280;2386;42.138;24.746;2022-11-20T14:51:38;98832.13;;;18.65;84.11
4745;BME280;2386;42.138;24.746;2022-11-20T14:54:20;98817.88;;;18.63;82.61
4745;BME280;2386;42.138;24.746;2022-11-20T14:57:02;98814.59;;;18.61;87.93